Language: 


Des rapports , des résumés tant et plus, au choix de chacun....


Données statistiques de la station
Quotidien Rapport Février 4, 2017 Unités:  les deux    Anglais   Métrique
« Précédent Jour
Suivant Jour »
Quotidien Hebdomadaire Mensuel Annuel Actuel
  Haut: Bas: Moyen:
Température: TemperatureC °F /  -17.8 °C 0.0 °F /  -17.8 °C 5.4 °F /  -14.8 °C
Pt de rosée: DewpointC °F /  -17.8 °C 3.3 °F /  -15.9 °C 5 °F /  -15 °C
Humidité: Humidity % 0 % 96 %
Vitesse du vent: WindSpeedKMH mph /  0 km/h - 5.9 mph /  9.5 km/h
Rafales: WindSpeedGustKMH mph /  0 km/h - -
Vent:- - South
Pression: PressurehPa in /  0 hPa 0.0 in /  0 hPa -
Précipitation: 6.6 in /  167.64 mm    
Historical Graphs
 
 
Données statistiques pour Février 4, 2017
Heure Température Point de rosée Pression Vent Vitesse du vent Refales Humidité Pluie (taux horaire)
TemperatureC °F /  -17.8 °C DewpointC °F /  -17.8 °C PressurehPa in /  0 hPa Calm     Humidity % HourlyPrecipMM in /  0 mm
00:01 7.1 °F /  -13.8 °C 6.3 °F /  -14.3 °C 996.8 in /  33751.6 hPa WSW 11.9 mph /  19.2 km/h 18.0 mph /  29 km/h 95 % 0.0 in /  0 mm
00:06 6.9 °F /  -13.9 °C 6.2 °F /  -14.3 °C 996.8 in /  33751.6 hPa SW 15.4 mph /  24.8 km/h 18.0 mph /  29 km/h 95 % 0.0 in /  0 mm
00:11 6.9 °F /  -13.9 °C 6.2 °F /  -14.3 °C 996.8 in /  33751.6 hPa SW 12.2 mph /  19.6 km/h 17.2 mph /  27.7 km/h 95 % 0.0 in /  0 mm
00:16 6.8 °F /  -14 °C 6.1 °F /  -14.4 °C 996.8 in /  33751.6 hPa SW 17.2 mph /  27.7 km/h 19.8 mph /  31.9 km/h 95 % 0.0 in /  0 mm
00:21 6.9 °F /  -13.9 °C 6.2 °F /  -14.3 °C 996.8 in /  33751.6 hPa SW 11.9 mph /  19.2 km/h 20.9 mph /  33.6 km/h 95 % 0.0 in /  0 mm
00:26 6.8 °F /  -14 °C 5.9 °F /  -14.5 °C 996.2 in /  33731.3 hPa WSW 9.3 mph /  15 km/h 20.9 mph /  33.6 km/h 94 % 0.0 in /  0 mm
00:31 6.8 °F /  -14 °C 5.9 °F /  -14.5 °C 996.2 in /  33731.3 hPa WSW 11.6 mph /  18.7 km/h 18.3 mph /  29.5 km/h 94 % 0.0 in /  0 mm
00:36 6.8 °F /  -14 °C 5.9 °F /  -14.5 °C 996.2 in /  33731.3 hPa SW 14.3 mph /  23 km/h 16.3 mph /  26.2 km/h 94 % 0.0 in /  0 mm
00:41 6.7 °F /  -14.1 °C 5.8 °F /  -14.6 °C 997.9 in /  33788.9 hPa SW 12.2 mph /  19.6 km/h 19.5 mph /  31.4 km/h 94 % 0.0 in /  0 mm
00:46 6.7 °F /  -14.1 °C 5.6 °F /  -14.7 °C 997.9 in /  33788.9 hPa WSW 15.1 mph /  24.3 km/h 20.9 mph /  33.6 km/h 93 % 0.0 in /  0 mm
00:51 6.7 °F /  -14.1 °C 5.6 °F /  -14.7 °C 997.9 in /  33788.9 hPa SSW 16.3 mph /  26.2 km/h 20.9 mph /  33.6 km/h 93 % 0.0 in /  0 mm
00:56 6.7 °F /  -14.1 °C 5.6 °F /  -14.7 °C 997.9 in /  33788.9 hPa SSW 16.9 mph /  27.2 km/h 19.5 mph /  31.4 km/h 93 % 0.0 in /  0 mm
01:01 6.7 °F /  -14.1 °C 5.6 °F /  -14.7 °C 997.9 in /  33788.9 hPa SW 10.5 mph /  16.9 km/h 24.5 mph /  39.4 km/h 93 % 0.0 in /  0 mm
01:06 6.7 °F /  -14.1 °C 5.6 °F /  -14.7 °C 997.9 in /  33788.9 hPa West 9.3 mph /  15 km/h 24.5 mph /  39.4 km/h 93 % 0.0 in /  0 mm
01:11 6.7 °F /  -14.1 °C 5.6 °F /  -14.7 °C 997.9 in /  33788.9 hPa SSW 18.3 mph /  29.5 km/h 19.8 mph /  31.9 km/h 93 % 0.0 in /  0 mm
01:16 6.7 °F /  -14.1 °C 5.6 °F /  -14.7 °C 997.9 in /  33788.9 hPa SSW 10.5 mph /  16.9 km/h 20.6 mph /  33.2 km/h 93 % 0.0 in /  0 mm
01:21 6.7 °F /  -14.1 °C 5.6 °F /  -14.7 °C 997.9 in /  33788.9 hPa WSW 9.3 mph /  15 km/h 20.6 mph /  33.2 km/h 93 % 0.0 in /  0 mm
01:26 6.7 °F /  -14.1 °C 5.6 °F /  -14.7 °C 997.9 in /  33788.9 hPa South 10.5 mph /  16.9 km/h 16.9 mph /  27.2 km/h 93 % 0.0 in /  0 mm
01:31 6.6 °F /  -14.1 °C 5.3 °F /  -14.8 °C 997.9 in /  33788.9 hPa SSW 9.3 mph /  15 km/h 16.9 mph /  27.2 km/h 92 % 0.0 in /  0 mm
01:36 6.6 °F /  -14.1 °C 5.3 °F /  -14.8 °C 997.9 in /  33788.9 hPa SW 16.9 mph /  27.2 km/h 16.9 mph /  27.2 km/h 92 % 0.0 in /  0 mm
01:41 6.4 °F /  -14.2 °C 5.3 °F /  -14.8 °C 997.9 in /  33788.9 hPa SSW 13.0 mph /  20.9 km/h 18.0 mph /  29 km/h 92 % 0.0 in /  0 mm
01:46 6.6 °F /  -14.1 °C 5.5 °F /  -14.7 °C 997.9 in /  33788.9 hPa SSW 10.5 mph /  16.9 km/h 18.0 mph /  29 km/h 93 % 0.0 in /  0 mm
01:51 6.4 °F /  -14.2 °C 5.4 °F /  -14.8 °C 997.9 in /  33788.9 hPa SW 17.7 mph /  28.5 km/h 20.9 mph /  33.6 km/h 93 % 0.0 in /  0 mm
01:56 6.4 °F /  -14.2 °C 5.3 °F /  -14.8 °C 997.9 in /  33788.9 hPa SSW 17.2 mph /  27.7 km/h 20.9 mph /  33.6 km/h 92 % 0.0 in /  0 mm
02:02 0.0 °F /  -17.8 °C 5.2 °F /  -14.9 °C 0.0 in /  0 hPa SSW 9.7 mph /  15.6 km/h 20.4 mph /  32.8 km/h 0 % 0.0 in /  0 mm
02:07 6.3 °F /  -14.3 °C 5.1 °F /  -14.9 °C 997.9 in /  33788.9 hPa SSW 15.1 mph /  24.3 km/h 19.5 mph /  31.4 km/h 92 % 0.0 in /  0 mm
02:12 6.3 °F /  -14.3 °C 5.1 °F /  -14.9 °C 997.9 in /  33788.9 hPa SSW 16.3 mph /  26.2 km/h 21.9 mph /  35.2 km/h 92 % 0.0 in /  0 mm
02:17 6.2 °F /  -14.3 °C 4.9 °F /  -15.1 °C 997.9 in /  33788.9 hPa SSW 9.0 mph /  14.5 km/h 21.9 mph /  35.2 km/h 92 % 0.0 in /  0 mm
02:22 6.2 °F /  -14.3 °C 4.9 °F /  -15.1 °C 997.9 in /  33788.9 hPa SSE 9.0 mph /  14.5 km/h 17.2 mph /  27.7 km/h 92 % 0.0 in /  0 mm
02:27 6.0 °F /  -14.4 °C 4.8 °F /  -15.1 °C 997.9 in /  33788.9 hPa SSW 5.5 mph /  8.9 km/h 13.7 mph /  22 km/h 92 % 0.0 in /  0 mm
02:32 5.9 °F /  -14.5 °C 4.7 °F /  -15.2 °C 997.9 in /  33788.9 hPa SSW 13.7 mph /  22 km/h 13.7 mph /  22 km/h 92 % 0.0 in /  0 mm
02:37 5.8 °F /  -14.6 °C 4.6 °F /  -15.2 °C 997.9 in /  33788.9 hPa SSW 9.3 mph /  15 km/h 14.8 mph /  23.8 km/h 92 % 0.0 in /  0 mm
02:42 5.8 °F /  -14.6 °C 4.7 °F /  -15.2 °C 997.9 in /  33788.9 hPa South 7.6 mph /  12.2 km/h 15.1 mph /  24.3 km/h 93 % 0.0 in /  0 mm
02:47 5.7 °F /  -14.6 °C 4.7 °F /  -15.2 °C 997.9 in /  33788.9 hPa SW 6.1 mph /  9.8 km/h 15.1 mph /  24.3 km/h 93 % 0.0 in /  0 mm
02:52 5.6 °F /  -14.7 °C 4.6 °F /  -15.2 °C 996.8 in /  33751.6 hPa SSW 9.7 mph /  15.6 km/h 13.0 mph /  20.9 km/h 93 % 0.0 in /  0 mm
02:57 5.6 °F /  -14.7 °C 4.6 °F /  -15.2 °C 996.8 in /  33751.6 hPa SSW 8.7 mph /  14 km/h 11.9 mph /  19.2 km/h 93 % 0.0 in /  0 mm
03:02 5.5 °F /  -14.7 °C 4.4 °F /  -15.3 °C 996.8 in /  33751.6 hPa WSW 6.4 mph /  10.3 km/h 11.9 mph /  19.2 km/h 93 % 0.0 in /  0 mm
03:07 5.5 °F /  -14.7 °C 4.6 °F /  -15.2 °C 997.9 in /  33788.9 hPa South 5.5 mph /  8.9 km/h 9.3 mph /  15 km/h 94 % 0.0 in /  0 mm
03:12 5.5 °F /  -14.7 °C 4.6 °F /  -15.2 °C 997.9 in /  33788.9 hPa SSW 9.3 mph /  15 km/h 14.0 mph /  22.5 km/h 94 % 0.0 in /  0 mm
03:17 5.4 °F /  -14.8 °C 4.5 °F /  -15.3 °C 997.9 in /  33788.9 hPa SSW 7.9 mph /  12.7 km/h 14.0 mph /  22.5 km/h 94 % 0.0 in /  0 mm
03:22 5.4 °F /  -14.8 °C 4.5 °F /  -15.3 °C 997.9 in /  33788.9 hPa SSW 9.0 mph /  14.5 km/h 11.9 mph /  19.2 km/h 94 % 0.0 in /  0 mm
03:27 5.3 °F /  -14.8 °C 4.4 °F /  -15.3 °C 997.9 in /  33788.9 hPa South 10.1 mph /  16.3 km/h 12.6 mph /  20.3 km/h 94 % 0.0 in /  0 mm
03:32 5.2 °F /  -14.9 °C 4.3 °F /  -15.4 °C 997.9 in /  33788.9 hPa SSW 9.7 mph /  15.6 km/h 12.6 mph /  20.3 km/h 94 % 0.0 in /  0 mm
03:37 5.2 °F /  -14.9 °C 4.3 °F /  -15.4 °C 997.9 in /  33788.9 hPa SSW 9.7 mph /  15.6 km/h 14.0 mph /  22.5 km/h 94 % 0.0 in /  0 mm
03:42 5.2 °F /  -14.9 °C 4.3 °F /  -15.4 °C 997.9 in /  33788.9 hPa SSW 5.5 mph /  8.9 km/h 14.0 mph /  22.5 km/h 94 % 0.0 in /  0 mm
03:47 5.1 °F /  -14.9 °C 4.2 °F /  -15.4 °C 997.9 in /  33788.9 hPa South 6.4 mph /  10.3 km/h 12.6 mph /  20.3 km/h 94 % 0.0 in /  0 mm
03:52 5.0 °F /  -15 °C 4.1 °F /  -15.5 °C 997.9 in /  33788.9 hPa SSW 7.6 mph /  12.2 km/h 12.6 mph /  20.3 km/h 94 % 0.0 in /  0 mm
03:57 4.9 °F /  -15.1 °C 4.0 °F /  -15.6 °C 997.9 in /  33788.9 hPa South 7.9 mph /  12.7 km/h 10.5 mph /  16.9 km/h 94 % 0.0 in /  0 mm
04:02 4.8 °F /  -15.1 °C 4.1 °F /  -15.5 °C 997.9 in /  33788.9 hPa South 8.7 mph /  14 km/h 11.6 mph /  18.7 km/h 95 % 0.0 in /  0 mm
04:07 4.7 °F /  -15.2 °C 3.9 °F /  -15.6 °C 997.9 in /  33788.9 hPa SSW 7.9 mph /  12.7 km/h 13.7 mph /  22 km/h 95 % 0.0 in /  0 mm
04:12 4.7 °F /  -15.2 °C 3.9 °F /  -15.6 °C 997.9 in /  33788.9 hPa South 5.0 mph /  8 km/h 13.7 mph /  22 km/h 95 % 0.0 in /  0 mm
04:17 4.7 °F /  -15.2 °C 3.9 °F /  -15.6 °C 997.9 in /  33788.9 hPa South 4.7 mph /  7.6 km/h 12.6 mph /  20.3 km/h 95 % 0.0 in /  0 mm
04:22 4.5 °F /  -15.3 °C 3.8 °F /  -15.7 °C 997.9 in /  33788.9 hPa SSW 6.1 mph /  9.8 km/h 10.1 mph /  16.3 km/h 95 % 0.0 in /  0 mm
04:27 4.5 °F /  -15.3 °C 3.8 °F /  -15.7 °C 996.8 in /  33751.6 hPa SSE 9.0 mph /  14.5 km/h 15.4 mph /  24.8 km/h 95 % 0.0 in /  0 mm
04:32 4.5 °F /  -15.3 °C 3.9 °F /  -15.6 °C 996.8 in /  33751.6 hPa South 11.9 mph /  19.2 km/h 15.4 mph /  24.8 km/h 96 % 0.0 in /  0 mm
04:37 4.5 °F /  -15.3 °C 3.9 °F /  -15.6 °C 996.8 in /  33751.6 hPa SSW 9.7 mph /  15.6 km/h 11.9 mph /  19.2 km/h 96 % 0.0 in /  0 mm
04:42 4.5 °F /  -15.3 °C 3.9 °F /  -15.6 °C 996.8 in /  33751.6 hPa South 12.6 mph /  20.3 km/h 13.7 mph /  22 km/h 96 % 0.0 in /  0 mm
04:47 4.4 °F /  -15.3 °C 3.8 °F /  -15.7 °C 996.8 in /  33751.6 hPa South 7.9 mph /  12.7 km/h 13.7 mph /  22 km/h 96 % 0.0 in /  0 mm
04:52 4.4 °F /  -15.3 °C 3.8 °F /  -15.7 °C 996.8 in /  33751.6 hPa South 9.0 mph /  14.5 km/h 11.6 mph /  18.7 km/h 96 % 0.0 in /  0 mm
04:57 4.4 °F /  -15.3 °C 3.8 °F /  -15.7 °C 996.8 in /  33751.6 hPa SSW 7.9 mph /  12.7 km/h 14.0 mph /  22.5 km/h 96 % 0.0 in /  0 mm
05:02 4.4 °F /  -15.3 °C 4.0 °F /  -15.6 °C 996.8 in /  33751.6 hPa South 6.1 mph /  9.8 km/h 14.0 mph /  22.5 km/h 97 % 0.0 in /  0 mm
05:07 4.4 °F /  -15.3 °C 4.0 °F /  -15.6 °C 996.8 in /  33751.6 hPa South 5.5 mph /  8.9 km/h 11.6 mph /  18.7 km/h 97 % 0.0 in /  0 mm
05:12 4.3 °F /  -15.4 °C 3.9 °F /  -15.6 °C 996.8 in /  33751.6 hPa South 6.1 mph /  9.8 km/h 11.6 mph /  18.7 km/h 97 % 0.0 in /  0 mm
05:17 4.3 °F /  -15.4 °C 3.9 °F /  -15.6 °C 996.8 in /  33751.6 hPa SSW 5.8 mph /  9.3 km/h 11.6 mph /  18.7 km/h 97 % 0.0 in /  0 mm
05:22 4.3 °F /  -15.4 °C 3.9 °F /  -15.6 °C 996.8 in /  33751.6 hPa SSE 6.4 mph /  10.3 km/h 13.7 mph /  22 km/h 97 % 0.0 in /  0 mm
05:27 4.3 °F /  -15.4 °C 3.9 °F /  -15.6 °C 996.8 in /  33751.6 hPa South 4.7 mph /  7.6 km/h 13.7 mph /  22 km/h 97 % 0.0 in /  0 mm
05:32 4.3 °F /  -15.4 °C 3.9 °F /  -15.6 °C 996.8 in /  33751.6 hPa SSE 5.5 mph /  8.9 km/h 9.3 mph /  15 km/h 97 % 0.0 in /  0 mm
05:37 4.3 °F /  -15.4 °C 3.9 °F /  -15.6 °C 996.2 in /  33731.3 hPa SSE 5.0 mph /  8 km/h 9.7 mph /  15.6 km/h 97 % 0.0 in /  0 mm
05:42 4.2 °F /  -15.4 °C 3.8 °F /  -15.7 °C 996.2 in /  33731.3 hPa South 4.0 mph /  6.4 km/h 11.6 mph /  18.7 km/h 97 % 0.0 in /  0 mm
05:47 4.2 °F /  -15.4 °C 3.8 °F /  -15.7 °C 996.2 in /  33731.3 hPa South 1.4 mph /  2.3 km/h 11.6 mph /  18.7 km/h 97 % 0.0 in /  0 mm
05:52 4.2 °F /  -15.4 °C 3.8 °F /  -15.7 °C 996.8 in /  33751.6 hPa SE 1.4 mph /  2.3 km/h 10.5 mph /  16.9 km/h 97 % 0.0 in /  0 mm
05:57 4.2 °F /  -15.4 °C 3.8 °F /  -15.7 °C 996.8 in /  33751.6 hPa SSE 1.4 mph /  2.3 km/h 9.7 mph /  15.6 km/h 97 % 0.0 in /  0 mm
06:02 4.2 °F /  -15.4 °C 3.8 °F /  -15.7 °C 996.8 in /  33751.6 hPa SSE 4.3 mph /  6.9 km/h 10.1 mph /  16.3 km/h 97 % 0.0 in /  0 mm
06:07 4.2 °F /  -15.4 °C 3.8 °F /  -15.7 °C 997.9 in /  33788.9 hPa SE 5.8 mph /  9.3 km/h 10.5 mph /  16.9 km/h 97 % 0.0 in /  0 mm
06:12 4.2 °F /  -15.4 °C 3.9 °F /  -15.6 °C 997.9 in /  33788.9 hPa ESE 7.9 mph /  12.7 km/h 13.7 mph /  22 km/h 98 % 0.0 in /  0 mm
06:17 4.3 °F /  -15.4 °C 4.0 °F /  -15.6 °C 997.9 in /  33788.9 hPa SE 7.6 mph /  12.2 km/h 13.7 mph /  22 km/h 98 % 0.0 in /  0 mm
06:22 4.3 °F /  -15.4 °C 4.0 °F /  -15.6 °C 996.8 in /  33751.6 hPa SSE 6.9 mph /  11.1 km/h 10.5 mph /  16.9 km/h 98 % 0.0 in /  0 mm
06:27 4.4 °F /  -15.3 °C 4.1 °F /  -15.5 °C 996.8 in /  33751.6 hPa SE 10.1 mph /  16.3 km/h 16.3 mph /  26.2 km/h 98 % 0.0 in /  0 mm
06:32 4.5 °F /  -15.3 °C 4.2 °F /  -15.4 °C 996.8 in /  33751.6 hPa SSE 9.0 mph /  14.5 km/h 16.3 mph /  26.2 km/h 98 % 0.0 in /  0 mm
06:37 4.6 °F /  -15.2 °C 4.3 °F /  -15.4 °C 996.2 in /  33731.3 hPa SE 8.7 mph /  14 km/h 11.9 mph /  19.2 km/h 98 % 0.0 in /  0 mm
06:42 4.6 °F /  -15.2 °C 4.3 °F /  -15.4 °C 996.2 in /  33731.3 hPa SE 12.6 mph /  20.3 km/h 12.6 mph /  20.3 km/h 98 % 0.0 in /  0 mm
06:47 4.7 °F /  -15.2 °C 4.4 °F /  -15.3 °C 996.2 in /  33731.3 hPa ESE 6.4 mph /  10.3 km/h 13.0 mph /  20.9 km/h 98 % 0.0 in /  0 mm
06:52 4.7 °F /  -15.2 °C 4.4 °F /  -15.3 °C 996.8 in /  33751.6 hPa South 5.0 mph /  8 km/h 13.0 mph /  20.9 km/h 98 % 0.0 in /  0 mm
06:57 4.8 °F /  -15.1 °C 4.5 °F /  -15.3 °C 996.8 in /  33751.6 hPa ESE 6.1 mph /  9.8 km/h 11.9 mph /  19.2 km/h 98 % 0.0 in /  0 mm
07:02 4.8 °F /  -15.1 °C 4.5 °F /  -15.3 °C 996.8 in /  33751.6 hPa ESE 11.1 mph /  17.9 km/h 11.1 mph /  17.9 km/h 98 % 0.0 in /  0 mm
07:07 4.9 °F /  -15.1 °C 4.6 °F /  -15.2 °C 996.8 in /  33751.6 hPa SSE 10.1 mph /  16.3 km/h 17.2 mph /  27.7 km/h 98 % 0.0 in /  0 mm
07:12 4.9 °F /  -15.1 °C 4.6 °F /  -15.2 °C 996.8 in /  33751.6 hPa SE 7.9 mph /  12.7 km/h 17.2 mph /  27.7 km/h 98 % 0.0 in /  0 mm
07:17 5.0 °F /  -15 °C 4.7 °F /  -15.2 °C 996.8 in /  33751.6 hPa SE 10.5 mph /  16.9 km/h 14.0 mph /  22.5 km/h 98 % 0.0 in /  0 mm
07:22 5.0 °F /  -15 °C 4.7 °F /  -15.2 °C 996.2 in /  33731.3 hPa SE 10.1 mph /  16.3 km/h 14.0 mph /  22.5 km/h 98 % 0.0 in /  0 mm
07:27 5.1 °F /  -14.9 °C 4.8 °F /  -15.1 °C 996.2 in /  33731.3 hPa South 12.6 mph /  20.3 km/h 12.6 mph /  20.3 km/h 98 % 0.0 in /  0 mm
07:32 5.2 °F /  -14.9 °C 4.9 °F /  -15.1 °C 996.2 in /  33731.3 hPa SE 9.0 mph /  14.5 km/h 13.7 mph /  22 km/h 98 % 0.0 in /  0 mm
07:37 5.3 °F /  -14.8 °C 5.0 °F /  -15 °C 996.2 in /  33731.3 hPa SE 10.1 mph /  16.3 km/h 13.7 mph /  22 km/h 98 % 0.0 in /  0 mm
07:42 5.3 °F /  -14.8 °C 5.0 °F /  -15 °C 996.2 in /  33731.3 hPa ENE 7.9 mph /  12.7 km/h 13.7 mph /  22 km/h 98 % 0.0 in /  0 mm
07:47 5.3 °F /  -14.8 °C 5.0 °F /  -15 °C 996.2 in /  33731.3 hPa East 6.1 mph /  9.8 km/h 13.7 mph /  22 km/h 98 % 0.0 in /  0 mm
07:52 5.3 °F /  -14.8 °C 5.0 °F /  -15 °C 996.2 in /  33731.3 hPa SE 5.0 mph /  8 km/h 13.0 mph /  20.9 km/h 98 % 0.0 in /  0 mm
07:57 5.2 °F /  -14.9 °C 4.8 °F /  -15.1 °C 996.2 in /  33731.3 hPa ESE 5.8 mph /  9.3 km/h 11.9 mph /  19.2 km/h 97 % 0.0 in /  0 mm
08:02 5.2 °F /  -14.9 °C 4.8 °F /  -15.1 °C 996.2 in /  33731.3 hPa ESE 8.7 mph /  14 km/h 11.9 mph /  19.2 km/h 97 % 0.0 in /  0 mm
08:07 5.1 °F /  -14.9 °C 4.7 °F /  -15.2 °C 996.2 in /  33731.3 hPa ENE 9.0 mph /  14.5 km/h 11.6 mph /  18.7 km/h 97 % 0.0 in /  0 mm
08:12 5.1 °F /  -14.9 °C 4.7 °F /  -15.2 °C 996.2 in /  33731.3 hPa ESE 9.3 mph /  15 km/h 11.6 mph /  18.7 km/h 97 % 0.0 in /  0 mm
08:17 5.0 °F /  -15 °C 4.6 °F /  -15.2 °C 996.2 in /  33731.3 hPa ESE 9.0 mph /  14.5 km/h 11.6 mph /  18.7 km/h 97 % 0.0 in /  0 mm
08:22 5.0 °F /  -15 °C 4.6 °F /  -15.2 °C 996.2 in /  33731.3 hPa East 9.3 mph /  15 km/h 10.5 mph /  16.9 km/h 97 % 0.0 in /  0 mm
08:27 5.0 °F /  -15 °C 4.6 °F /  -15.2 °C 996.2 in /  33731.3 hPa East 7.2 mph /  11.6 km/h 11.1 mph /  17.9 km/h 97 % 0.0 in /  0 mm
08:32 5.1 °F /  -14.9 °C 4.8 °F /  -15.1 °C 996.2 in /  33731.3 hPa ESE 9.3 mph /  15 km/h 11.1 mph /  17.9 km/h 98 % 0.0 in /  0 mm
08:37 5.1 °F /  -14.9 °C 4.8 °F /  -15.1 °C 995.1 in /  33694.1 hPa ESE 6.4 mph /  10.3 km/h 10.8 mph /  17.4 km/h 98 % 0.0 in /  0 mm
08:42 5.2 °F /  -14.9 °C 4.9 °F /  -15.1 °C 995.1 in /  33694.1 hPa East 1.8 mph /  2.9 km/h 12.2 mph /  19.6 km/h 98 % 0.0 in /  0 mm
08:47 5.2 °F /  -14.9 °C 4.9 °F /  -15.1 °C 995.1 in /  33694.1 hPa East 9.0 mph /  14.5 km/h 12.2 mph /  19.6 km/h 98 % 0.0 in /  0 mm
08:52 5.3 °F /  -14.8 °C 5.0 °F /  -15 °C 995.1 in /  33694.1 hPa ENE 4.3 mph /  6.9 km/h 10.5 mph /  16.9 km/h 98 % 0.0 in /  0 mm
08:57 5.3 °F /  -14.8 °C 5.0 °F /  -15 °C 995.1 in /  33694.1 hPa East 5.8 mph /  9.3 km/h 9.3 mph /  15 km/h 98 % 0.0 in /  0 mm
09:02 5.4 °F /  -14.8 °C 5.1 °F /  -14.9 °C 995.1 in /  33694.1 hPa East 7.9 mph /  12.7 km/h 12.6 mph /  20.3 km/h 98 % 0.0 in /  0 mm
09:07 5.4 °F /  -14.8 °C 5.1 °F /  -14.9 °C 994.1 in /  33660.2 hPa ENE 6.4 mph /  10.3 km/h 12.6 mph /  20.3 km/h 98 % 0.0 in /  0 mm
09:12 5.5 °F /  -14.7 °C 5.2 °F /  -14.9 °C 994.1 in /  33660.2 hPa ESE 6.9 mph /  11.1 km/h 11.9 mph /  19.2 km/h 98 % 0.0 in /  0 mm
09:17 5.5 °F /  -14.7 °C 5.2 °F /  -14.9 °C 994.1 in /  33660.2 hPa East 4.7 mph /  7.6 km/h 10.5 mph /  16.9 km/h 98 % 0.0 in /  0 mm
09:22 5.5 °F /  -14.7 °C 5.2 °F /  -14.9 °C 995.1 in /  33694.1 hPa East 7.6 mph /  12.2 km/h 10.1 mph /  16.3 km/h 98 % 0.0 in /  0 mm
09:27 5.6 °F /  -14.7 °C 5.3 °F /  -14.8 °C 995.1 in /  33694.1 hPa East 4.3 mph /  6.9 km/h 9.3 mph /  15 km/h 98 % 0.0 in /  0 mm
09:32 5.6 °F /  -14.7 °C 5.2 °F /  -14.9 °C 995.1 in /  33694.1 hPa Calm   7.6 mph /  12.2 km/h 97 % 0.0 in /  0 mm
09:37 5.6 °F /  -14.7 °C 5.2 °F /  -14.9 °C 995.1 in /  33694.1 hPa East 4.3 mph /  6.9 km/h 6.9 mph /  11.1 km/h 97 % 0.0 in /  0 mm
09:42 5.7 °F /  -14.6 °C 5.2 °F /  -14.9 °C 995.1 in /  33694.1 hPa ENE 4.0 mph /  6.4 km/h 7.9 mph /  12.7 km/h 97 % 0.0 in /  0 mm
09:47 5.7 °F /  -14.6 °C 5.2 °F /  -14.9 °C 995.1 in /  33694.1 hPa Calm   7.9 mph /  12.7 km/h 97 % 0.0 in /  0 mm
09:52 5.7 °F /  -14.6 °C 5.2 °F /  -14.9 °C 995.1 in /  33694.1 hPa Calm   6.9 mph /  11.1 km/h 97 % 0.0 in /  0 mm
09:57 5.7 °F /  -14.6 °C 5.2 °F /  -14.9 °C 995.1 in /  33694.1 hPa ENE 3.5 mph /  5.6 km/h 7.9 mph /  12.7 km/h 97 % 0.0 in /  0 mm
09:58 5.7 °F /  -14.6 °C 5.2 °F /  -14.9 °C 995.1 in /  33694.1 hPa Calm   7.9 mph /  12.7 km/h 97 % 0.0 in /  0 mm
10:03 5.8 °F /  -14.6 °C 5.3 °F /  -14.8 °C 995.1 in /  33694.1 hPa Calm   7.9 mph /  12.7 km/h 97 % 0.0 in /  0 mm
10:08 5.8 °F /  -14.6 °C 5.3 °F /  -14.8 °C 994.1 in /  33660.2 hPa NE 4.0 mph /  6.4 km/h 5.5 mph /  8.9 km/h 97 % 0.0 in /  0 mm
10:13 5.8 °F /  -14.6 °C 5.3 °F /  -14.8 °C 994.1 in /  33660.2 hPa East 5.0 mph /  8 km/h 5.8 mph /  9.3 km/h 97 % 0.0 in /  0 mm
10:18 5.8 °F /  -14.6 °C 5.3 °F /  -14.8 °C 994.1 in /  33660.2 hPa Calm   5.8 mph /  9.3 km/h 97 % 0.0 in /  0 mm
10:23 5.9 °F /  -14.5 °C 5.4 °F /  -14.8 °C 994.1 in /  33660.2 hPa NE 5.0 mph /  8 km/h 5.8 mph /  9.3 km/h 97 % 0.0 in /  0 mm
10:28 5.9 °F /  -14.5 °C 5.4 °F /  -14.8 °C 994.1 in /  33660.2 hPa ENE 1.8 mph /  2.9 km/h 6.4 mph /  10.3 km/h 97 % 0.0 in /  0 mm
10:33 5.9 °F /  -14.5 °C 5.4 °F /  -14.8 °C 994.1 in /  33660.2 hPa NE 5.0 mph /  8 km/h 7.6 mph /  12.2 km/h 97 % 0.0 in /  0 mm
10:38 5.9 °F /  -14.5 °C 5.4 °F /  -14.8 °C 995.1 in /  33694.1 hPa NE 6.1 mph /  9.8 km/h 7.6 mph /  12.2 km/h 97 % 0.0 in /  0 mm
10:43 5.9 °F /  -14.5 °C 5.4 °F /  -14.8 °C 995.1 in /  33694.1 hPa NE 6.9 mph /  11.1 km/h 9.7 mph /  15.6 km/h 97 % 0.0 in /  0 mm
10:48 5.9 °F /  -14.5 °C 5.4 °F /  -14.8 °C 995.1 in /  33694.1 hPa NE 6.4 mph /  10.3 km/h 9.7 mph /  15.6 km/h 97 % 0.0 in /  0 mm
10:53 5.9 °F /  -14.5 °C 5.4 °F /  -14.8 °C 995.1 in /  33694.1 hPa NNE 8.7 mph /  14 km/h 9.0 mph /  14.5 km/h 97 % 0.0 in /  0 mm
10:58 6.0 °F /  -14.4 °C 5.6 °F /  -14.7 °C 995.1 in /  33694.1 hPa NE 5.5 mph /  8.9 km/h 9.0 mph /  14.5 km/h 97 % 0.0 in /  0 mm
11:03 6.0 °F /  -14.4 °C 5.6 °F /  -14.7 °C 995.1 in /  33694.1 hPa East 6.9 mph /  11.1 km/h 10.5 mph /  16.9 km/h 97 % 0.0 in /  0 mm
11:08 6.0 °F /  -14.4 °C 5.6 °F /  -14.7 °C 994.1 in /  33660.2 hPa NE 6.9 mph /  11.1 km/h 10.5 mph /  16.9 km/h 97 % 0.0 in /  0 mm
11:13 6.1 °F /  -14.4 °C 5.6 °F /  -14.7 °C 994.1 in /  33660.2 hPa ENE 7.6 mph /  12.2 km/h 9.3 mph /  15 km/h 97 % 0.0 in /  0 mm
11:18 6.1 °F /  -14.4 °C 5.6 °F /  -14.7 °C 994.1 in /  33660.2 hPa ENE 4.0 mph /  6.4 km/h 10.1 mph /  16.3 km/h 97 % 0.0 in /  0 mm
11:23 6.2 °F /  -14.3 °C 5.7 °F /  -14.6 °C 995.1 in /  33694.1 hPa NE 9.0 mph /  14.5 km/h 10.1 mph /  16.3 km/h 97 % 0.0 in /  0 mm
11:28 6.3 °F /  -14.3 °C 5.8 °F /  -14.6 °C 995.1 in /  33694.1 hPa NE 10.1 mph /  16.3 km/h 10.1 mph /  16.3 km/h 97 % 0.0 in /  0 mm
11:33 6.4 °F /  -14.2 °C 5.9 °F /  -14.5 °C 995.1 in /  33694.1 hPa NE 9.3 mph /  15 km/h 11.9 mph /  19.2 km/h 97 % 0.0 in /  0 mm
11:38 6.4 °F /  -14.2 °C 5.9 °F /  -14.5 °C 995.1 in /  33694.1 hPa East 8.7 mph /  14 km/h 11.9 mph /  19.2 km/h 97 % 0.0 in /  0 mm
11:43 6.6 °F /  -14.1 °C 6.1 °F /  -14.4 °C 995.1 in /  33694.1 hPa ENE 5.8 mph /  9.3 km/h 10.5 mph /  16.9 km/h 97 % 0.0 in /  0 mm
11:48 6.6 °F /  -14.1 °C 6.1 °F /  -14.4 °C 995.1 in /  33694.1 hPa NE 7.6 mph /  12.2 km/h 10.5 mph /  16.9 km/h 97 % 0.0 in /  0 mm
11:53 6.7 °F /  -14.1 °C 6.2 °F /  -14.3 °C 994.1 in /  33660.2 hPa ENE 10.1 mph /  16.3 km/h 11.1 mph /  17.9 km/h 97 % 0.0 in /  0 mm
11:58 6.7 °F /  -14.1 °C 6.1 °F /  -14.4 °C 994.1 in /  33660.2 hPa ENE 10.1 mph /  16.3 km/h 11.1 mph /  17.9 km/h 96 % 0.0 in /  0 mm
12:03 6.7 °F /  -14.1 °C 6.1 °F /  -14.4 °C 994.1 in /  33660.2 hPa NE 1.8 mph /  2.9 km/h 11.1 mph /  17.9 km/h 96 % 0.0 in /  0 mm
12:08 6.8 °F /  -14 °C 6.2 °F /  -14.3 °C 995.1 in /  33694.1 hPa ENE 6.1 mph /  9.8 km/h 9.7 mph /  15.6 km/h 96 % 0.0 in /  0 mm
12:13 6.8 °F /  -14 °C 6.2 °F /  -14.3 °C 995.1 in /  33694.1 hPa ENE 6.4 mph /  10.3 km/h 9.7 mph /  15.6 km/h 96 % 0.0 in /  0 mm
12:18 6.8 °F /  -14 °C 6.3 °F /  -14.3 °C 995.1 in /  33694.1 hPa East 2.1 mph /  3.4 km/h 9.7 mph /  15.6 km/h 96 % 0.0 in /  0 mm
12:23 6.8 °F /  -14 °C 6.3 °F /  -14.3 °C 994.1 in /  33660.2 hPa ESE 4.7 mph /  7.6 km/h 6.4 mph /  10.3 km/h 96 % 0.0 in /  0 mm
12:28 6.8 °F /  -14 °C 6.1 °F /  -14.4 °C 994.1 in /  33660.2 hPa ESE 6.1 mph /  9.8 km/h 6.4 mph /  10.3 km/h 95 % 0.0 in /  0 mm
12:33 6.8 °F /  -14 °C 6.2 °F /  -14.3 °C 994.1 in /  33660.2 hPa East 6.1 mph /  9.8 km/h 8.7 mph /  14 km/h 96 % 0.0 in /  0 mm
12:38 6.8 °F /  -14 °C 6.2 °F /  -14.3 °C 994.1 in /  33660.2 hPa ESE 5.8 mph /  9.3 km/h 8.7 mph /  14 km/h 96 % 0.0 in /  0 mm
12:43 6.7 °F /  -14.1 °C 6.1 °F /  -14.4 °C 994.1 in /  33660.2 hPa Calm   6.4 mph /  10.3 km/h 96 % 0.3 in /  7.62 mm
12:45 6.7 °F /  -14.1 °C 6.1 °F /  -14.4 °C 994.1 in /  33660.2 hPa East 3.5 mph /  5.6 km/h 5.8 mph /  9.3 km/h 96 % 0.3 in /  7.62 mm
12:50 6.7 °F /  -14.1 °C 6.1 °F /  -14.4 °C 994.1 in /  33660.2 hPa Calm   4.7 mph /  7.6 km/h 96 % 0.3 in /  7.62 mm
12:55 6.7 °F /  -14.1 °C 6.1 °F /  -14.4 °C 995.1 in /  33694.1 hPa Calm   5.8 mph /  9.3 km/h 96 % 0.5 in /  12.7 mm
13:00 6.7 °F /  -14.1 °C 6.1 °F /  -14.4 °C 995.1 in /  33694.1 hPa ESE 5.8 mph /  9.3 km/h 5.8 mph /  9.3 km/h 96 % 0.5 in /  12.7 mm
13:05 6.6 °F /  -14.1 °C 6.0 °F /  -14.4 °C 995.1 in /  33694.1 hPa SE 5.8 mph /  9.3 km/h 6.9 mph /  11.1 km/h 96 % 1.0 in /  25.4 mm
13:10 6.4 °F /  -14.2 °C 5.9 °F /  -14.5 °C 994.1 in /  33660.2 hPa ESE 9.0 mph /  14.5 km/h 10.1 mph /  16.3 km/h 96 % 1.0 in /  25.4 mm
13:15 6.3 °F /  -14.3 °C 5.6 °F /  -14.7 °C 994.1 in /  33660.2 hPa SE 6.1 mph /  9.8 km/h 10.5 mph /  16.9 km/h 95 % 1.3 in /  33.02 mm
13:20 6.3 °F /  -14.3 °C 5.6 °F /  -14.7 °C 994.1 in /  33660.2 hPa East 6.1 mph /  9.8 km/h 10.5 mph /  16.9 km/h 95 % 1.5 in /  38.1 mm
13:25 6.2 °F /  -14.3 °C 5.4 °F /  -14.8 °C 995.1 in /  33694.1 hPa Calm   9.0 mph /  14.5 km/h 95 % 1.5 in /  38.1 mm
13:30 6.1 °F /  -14.4 °C 5.3 °F /  -14.8 °C 995.1 in /  33694.1 hPa East 1.4 mph /  2.3 km/h 6.1 mph /  9.8 km/h 95 % 1.8 in /  45.72 mm
13:35 6.0 °F /  -14.4 °C 5.2 °F /  -14.9 °C 995.1 in /  33694.1 hPa East 3.2 mph /  5.1 km/h 5.0 mph /  8 km/h 95 % 2.0 in /  50.8 mm
13:40 6.0 °F /  -14.4 °C 5.2 °F /  -14.9 °C 995.1 in /  33694.1 hPa Calm   4.7 mph /  7.6 km/h 95 % 2.3 in /  58.42 mm
13:45 6.0 °F /  -14.4 °C 5.4 °F /  -14.8 °C 995.1 in /  33694.1 hPa NE 3.5 mph /  5.6 km/h 4.0 mph /  6.4 km/h 96 % 2.0 in /  50.8 mm
13:50 5.9 °F /  -14.5 °C 5.3 °F /  -14.8 °C 995.1 in /  33694.1 hPa NE 1.4 mph /  2.3 km/h 4.0 mph /  6.4 km/h 96 % 2.3 in /  58.42 mm
13:55 5.9 °F /  -14.5 °C 5.3 °F /  -14.8 °C 995.1 in /  33694.1 hPa NE 4.0 mph /  6.4 km/h 6.4 mph /  10.3 km/h 96 % 2.3 in /  58.42 mm
14:00 5.9 °F /  -14.5 °C 5.3 °F /  -14.8 °C 995.1 in /  33694.1 hPa NE 6.4 mph /  10.3 km/h 6.9 mph /  11.1 km/h 96 % 2.8 in /  71.12 mm
14:05 5.8 °F /  -14.6 °C 5.2 °F /  -14.9 °C 995.1 in /  33694.1 hPa NE 6.4 mph /  10.3 km/h 11.9 mph /  19.2 km/h 96 % 2.3 in /  58.42 mm
14:10 5.7 °F /  -14.6 °C 5.1 °F /  -14.9 °C 996.2 in /  33731.3 hPa Calm   11.9 mph /  19.2 km/h 96 % 2.5 in /  63.5 mm
14:15 5.7 °F /  -14.6 °C 5.1 °F /  -14.9 °C 996.2 in /  33731.3 hPa NNE 5.0 mph /  8 km/h 9.7 mph /  15.6 km/h 96 % 2.3 in /  58.42 mm
14:20 5.7 °F /  -14.6 °C 5.1 °F /  -14.9 °C 996.2 in /  33731.3 hPa Calm   9.7 mph /  15.6 km/h 96 % 2.3 in /  58.42 mm
14:25 5.7 °F /  -14.6 °C 5.2 °F /  -14.9 °C 996.2 in /  33731.3 hPa North 4.7 mph /  7.6 km/h 7.9 mph /  12.7 km/h 97 % 2.0 in /  50.8 mm
14:30 5.8 °F /  -14.6 °C 5.3 °F /  -14.8 °C 996.2 in /  33731.3 hPa Calm   6.9 mph /  11.1 km/h 97 % 2.3 in /  58.42 mm
14:35 5.8 °F /  -14.6 °C 5.3 °F /  -14.8 °C 996.2 in /  33731.3 hPa North 4.0 mph /  6.4 km/h 6.9 mph /  11.1 km/h 97 % 2.3 in /  58.42 mm
14:40 5.8 °F /  -14.6 °C 5.3 °F /  -14.8 °C 996.2 in /  33731.3 hPa North 4.0 mph /  6.4 km/h 6.4 mph /  10.3 km/h 97 % 2.0 in /  50.8 mm
14:45 5.7 °F /  -14.6 °C 5.2 °F /  -14.9 °C 996.2 in /  33731.3 hPa NE 2.1 mph /  3.4 km/h 6.9 mph /  11.1 km/h 97 % 2.0 in /  50.8 mm
14:50 5.7 °F /  -14.6 °C 5.2 °F /  -14.9 °C 996.2 in /  33731.3 hPa Calm   6.9 mph /  11.1 km/h 97 % 1.8 in /  45.72 mm
14:55 5.7 °F /  -14.6 °C 5.2 °F /  -14.9 °C 996.2 in /  33731.3 hPa Calm   6.9 mph /  11.1 km/h 97 % 1.5 in /  38.1 mm
15:00 5.6 °F /  -14.7 °C 5.2 °F /  -14.9 °C 996.2 in /  33731.3 hPa Calm   5.5 mph /  8.9 km/h 97 % 1.0 in /  25.4 mm
15:05 5.6 °F /  -14.7 °C 5.2 °F /  -14.9 °C 996.2 in /  33731.3 hPa NW 3.5 mph /  5.6 km/h 7.6 mph /  12.2 km/h 97 % 1.5 in /  38.1 mm
15:10 5.6 °F /  -14.7 °C 5.2 °F /  -14.9 °C 996.8 in /  33751.6 hPa WNW 2.6 mph /  4.2 km/h 7.6 mph /  12.2 km/h 97 % 1.3 in /  33.02 mm
15:15 5.6 °F /  -14.7 °C 5.2 °F /  -14.9 °C 996.8 in /  33751.6 hPa NNW 5.0 mph /  8 km/h 6.4 mph /  10.3 km/h 97 % 1.5 in /  38.1 mm
15:20 5.5 °F /  -14.7 °C 5.1 °F /  -14.9 °C 996.8 in /  33751.6 hPa NNE 1.8 mph /  2.9 km/h 6.9 mph /  11.1 km/h 97 % 1.0 in /  25.4 mm
15:25 5.5 °F /  -14.7 °C 5.1 °F /  -14.9 °C 996.8 in /  33751.6 hPa NNW 6.4 mph /  10.3 km/h 8.7 mph /  14 km/h 97 % 1.5 in /  38.1 mm
15:30 5.5 °F /  -14.7 °C 5.1 °F /  -14.9 °C 996.8 in /  33751.6 hPa Calm   8.7 mph /  14 km/h 97 % 1.5 in /  38.1 mm
15:35 5.5 °F /  -14.7 °C 5.1 °F /  -14.9 °C 996.8 in /  33751.6 hPa NW 2.1 mph /  3.4 km/h 6.1 mph /  9.8 km/h 97 % 1.3 in /  33.02 mm
15:40 5.5 °F /  -14.7 °C 5.1 °F /  -14.9 °C 996.8 in /  33751.6 hPa West 1.4 mph /  2.3 km/h 5.5 mph /  8.9 km/h 97 % 1.3 in /  33.02 mm
15:45 5.5 °F /  -14.7 °C 5.1 °F /  -14.9 °C 996.8 in /  33751.6 hPa Calm   4.3 mph /  6.9 km/h 97 % 1.5 in /  38.1 mm
15:50 5.5 °F /  -14.7 °C 5.1 °F /  -14.9 °C 996.8 in /  33751.6 hPa WNW 4.7 mph /  7.6 km/h 4.7 mph /  7.6 km/h 97 % 1.5 in /  38.1 mm
15:55 5.5 °F /  -14.7 °C 5.1 °F /  -14.9 °C 996.8 in /  33751.6 hPa Calm   4.7 mph /  7.6 km/h 97 % 1.8 in /  45.72 mm
16:00 5.5 °F /  -14.7 °C 5.1 °F /  -14.9 °C 996.8 in /  33751.6 hPa NW 4.0 mph /  6.4 km/h 5.0 mph /  8 km/h 97 % 1.8 in /  45.72 mm
16:05 5.5 °F /  -14.7 °C 5.1 °F /  -14.9 °C 996.8 in /  33751.6 hPa North 4.0 mph /  6.4 km/h 5.5 mph /  8.9 km/h 97 % 1.5 in /  38.1 mm
16:10 5.5 °F /  -14.7 °C 5.1 °F /  -14.9 °C 996.8 in /  33751.6 hPa Calm   5.5 mph /  8.9 km/h 97 % 1.5 in /  38.1 mm
16:15 5.5 °F /  -14.7 °C 5.1 °F /  -14.9 °C 996.8 in /  33751.6 hPa Calm   4.3 mph /  6.9 km/h 97 % 1.3 in /  33.02 mm
16:20 5.6 °F /  -14.7 °C 5.2 °F /  -14.9 °C 996.8 in /  33751.6 hPa Calm   5.0 mph /  8 km/h 97 % 1.5 in /  38.1 mm
16:25 5.6 °F /  -14.7 °C 5.2 °F /  -14.9 °C 996.8 in /  33751.6 hPa Calm   5.0 mph /  8 km/h 97 % 1.0 in /  25.4 mm
16:30 5.6 °F /  -14.7 °C 5.2 °F /  -14.9 °C 996.8 in /  33751.6 hPa WNW 3.5 mph /  5.6 km/h 5.8 mph /  9.3 km/h 97 % 0.8 in /  20.32 mm
16:35 5.6 °F /  -14.7 °C 5.2 °F /  -14.9 °C 996.8 in /  33751.6 hPa Calm   5.8 mph /  9.3 km/h 97 % 0.8 in /  20.32 mm
16:40 5.6 °F /  -14.7 °C 5.2 °F /  -14.9 °C 996.8 in /  33751.6 hPa Calm   5.8 mph /  9.3 km/h 97 % 0.8 in /  20.32 mm
16:45 5.6 °F /  -14.7 °C 5.2 °F /  -14.9 °C 996.8 in /  33751.6 hPa Calm   4.7 mph /  7.6 km/h 97 % 0.5 in /  12.7 mm
16:50 5.6 °F /  -14.7 °C 5.2 °F /  -14.9 °C 996.8 in /  33751.6 hPa Calm   2.6 mph /  4.2 km/h 97 % 0.5 in /  12.7 mm
16:55 5.6 °F /  -14.7 °C 5.2 °F /  -14.9 °C 997.9 in /  33788.9 hPa WNW 2.6 mph /  4.2 km/h 4.3 mph /  6.9 km/h 97 % 0.3 in /  7.62 mm
17:00 5.5 °F /  -14.7 °C 5.1 °F /  -14.9 °C 997.9 in /  33788.9 hPa West 3.5 mph /  5.6 km/h 5.8 mph /  9.3 km/h 97 % 0.3 in /  7.62 mm
17:05 5.5 °F /  -14.7 °C 5.1 °F /  -14.9 °C 997.9 in /  33788.9 hPa West 5.5 mph /  8.9 km/h 6.4 mph /  10.3 km/h 97 % 0.3 in /  7.62 mm
17:10 5.5 °F /  -14.7 °C 5.1 °F /  -14.9 °C 997.9 in /  33788.9 hPa WNW 5.5 mph /  8.9 km/h 6.9 mph /  11.1 km/h 97 % 0.3 in /  7.62 mm
17:15 5.5 °F /  -14.7 °C 5.1 °F /  -14.9 °C 997.9 in /  33788.9 hPa North 3.2 mph /  5.1 km/h 6.9 mph /  11.1 km/h 97 % 0.3 in /  7.62 mm
17:20 5.5 °F /  -14.7 °C 5.1 °F /  -14.9 °C 997.9 in /  33788.9 hPa West 4.3 mph /  6.9 km/h 7.6 mph /  12.2 km/h 97 % 0.0 in /  0 mm
17:25 5.5 °F /  -14.7 °C 5.1 °F /  -14.9 °C 997.9 in /  33788.9 hPa WNW 5.8 mph /  9.3 km/h 7.6 mph /  12.2 km/h 97 % 0.0 in /  0 mm
17:30 5.5 °F /  -14.7 °C 5.1 °F /  -14.9 °C 997.9 in /  33788.9 hPa Calm   5.8 mph /  9.3 km/h 97 % 0.0 in /  0 mm
17:35 5.5 °F /  -14.7 °C 5.2 °F /  -14.9 °C 997.9 in /  33788.9 hPa North 1.8 mph /  2.9 km/h 5.8 mph /  9.3 km/h 98 % 0.0 in /  0 mm
17:40 5.5 °F /  -14.7 °C 5.2 °F /  -14.9 °C 997.9 in /  33788.9 hPa Calm   6.4 mph /  10.3 km/h 98 % 0.0 in /  0 mm
17:45 5.5 °F /  -14.7 °C 5.2 °F /  -14.9 °C 997.9 in /  33788.9 hPa NNW 1.8 mph /  2.9 km/h 6.4 mph /  10.3 km/h 98 % 0.0 in /  0 mm
17:50 5.5 °F /  -14.7 °C 5.2 °F /  -14.9 °C 997.9 in /  33788.9 hPa Calm   4.7 mph /  7.6 km/h 98 % 0.0 in /  0 mm
17:55 5.5 °F /  -14.7 °C 5.2 °F /  -14.9 °C 997.9 in /  33788.9 hPa West 4.3 mph /  6.9 km/h 4.7 mph /  7.6 km/h 98 % 0.0 in /  0 mm
18:00 5.5 °F /  -14.7 °C 5.2 °F /  -14.9 °C 997.9 in /  33788.9 hPa WNW 2.6 mph /  4.2 km/h 7.2 mph /  11.6 km/h 98 % 0.0 in /  0 mm
18:05 5.4 °F /  -14.8 °C 5.1 °F /  -14.9 °C 997.9 in /  33788.9 hPa West 3.2 mph /  5.1 km/h 7.2 mph /  11.6 km/h 98 % 0.0 in /  0 mm
18:10 5.4 °F /  -14.8 °C 5.1 °F /  -14.9 °C 998.9 in /  33822.8 hPa West 5.5 mph /  8.9 km/h 7.9 mph /  12.7 km/h 98 % 0.0 in /  0 mm
18:15 5.4 °F /  -14.8 °C 5.1 °F /  -14.9 °C 998.9 in /  33822.8 hPa WNW 6.4 mph /  10.3 km/h 7.9 mph /  12.7 km/h 98 % 0.0 in /  0 mm
18:20 5.4 °F /  -14.8 °C 5.1 °F /  -14.9 °C 998.9 in /  33822.8 hPa WSW 5.5 mph /  8.9 km/h 9.3 mph /  15 km/h 98 % 0.0 in /  0 mm
18:25 5.4 °F /  -14.8 °C 5.1 °F /  -14.9 °C 998.9 in /  33822.8 hPa West 6.9 mph /  11.1 km/h 10.5 mph /  16.9 km/h 98 % 0.0 in /  0 mm
18:30 5.4 °F /  -14.8 °C 5.1 °F /  -14.9 °C 998.9 in /  33822.8 hPa WSW 9.3 mph /  15 km/h 10.5 mph /  16.9 km/h 98 % 0.0 in /  0 mm
18:35 5.4 °F /  -14.8 °C 5.1 °F /  -14.9 °C 998.9 in /  33822.8 hPa West 10.5 mph /  16.9 km/h 10.5 mph /  16.9 km/h 98 % 0.0 in /  0 mm
18:40 5.4 °F /  -14.8 °C 5.1 °F /  -14.9 °C 998.9 in /  33822.8 hPa West 7.6 mph /  12.2 km/h 10.5 mph /  16.9 km/h 98 % 0.0 in /  0 mm
18:45 5.4 °F /  -14.8 °C 5.1 °F /  -14.9 °C 998.9 in /  33822.8 hPa West 5.5 mph /  8.9 km/h 10.5 mph /  16.9 km/h 98 % 0.0 in /  0 mm
18:50 5.4 °F /  -14.8 °C 5.1 °F /  -14.9 °C 998.9 in /  33822.8 hPa West 7.9 mph /  12.7 km/h 10.1 mph /  16.3 km/h 98 % 0.0 in /  0 mm
18:55 5.4 °F /  -14.8 °C 5.1 °F /  -14.9 °C 998.9 in /  33822.8 hPa West 8.7 mph /  14 km/h 10.8 mph /  17.4 km/h 98 % 0.0 in /  0 mm
19:00 5.5 °F /  -14.7 °C 5.2 °F /  -14.9 °C 998.9 in /  33822.8 hPa West 15.4 mph /  24.8 km/h 15.4 mph /  24.8 km/h 98 % 0.0 in /  0 mm
19:05 5.5 °F /  -14.7 °C 5.2 °F /  -14.9 °C 998.9 in /  33822.8 hPa WNW 12.6 mph /  20.3 km/h 16.9 mph /  27.2 km/h 98 % 0.0 in /  0 mm
19:10 5.6 °F /  -14.7 °C 5.3 °F /  -14.8 °C 998.9 in /  33822.8 hPa West 9.0 mph /  14.5 km/h 16.9 mph /  27.2 km/h 98 % 0.0 in /  0 mm
19:15 5.6 °F /  -14.7 °C 5.3 °F /  -14.8 °C 998.9 in /  33822.8 hPa WSW 5.5 mph /  8.9 km/h 15.8 mph /  25.4 km/h 98 % 0.0 in /  0 mm
19:20 5.6 °F /  -14.7 °C 5.3 °F /  -14.8 °C 998.9 in /  33822.8 hPa WNW 6.1 mph /  9.8 km/h 15.8 mph /  25.4 km/h 98 % 0.0 in /  0 mm
19:25 5.6 °F /  -14.7 °C 5.3 °F /  -14.8 °C 999.9 in /  33856.6 hPa WNW 8.7 mph /  14 km/h 15.4 mph /  24.8 km/h 98 % 0.0 in /  0 mm
19:30 5.6 °F /  -14.7 °C 5.3 °F /  -14.8 °C 999.9 in /  33856.6 hPa West 12.6 mph /  20.3 km/h 13.7 mph /  22 km/h 98 % 0.3 in /  7.62 mm
19:35 5.6 °F /  -14.7 °C 5.3 °F /  -14.8 °C 999.9 in /  33856.6 hPa West 13.7 mph /  22 km/h 13.7 mph /  22 km/h 98 % 0.3 in /  7.62 mm
19:40 5.6 °F /  -14.7 °C 5.3 °F /  -14.8 °C 1000.9 in /  33890.5 hPa West 6.1 mph /  9.8 km/h 13.7 mph /  22 km/h 98 % 0.3 in /  7.62 mm
19:45 5.6 °F /  -14.7 °C 5.3 °F /  -14.8 °C 1000.9 in /  33890.5 hPa West 11.9 mph /  19.2 km/h 14.0 mph /  22.5 km/h 98 % 0.3 in /  7.62 mm
19:50 5.6 °F /  -14.7 °C 5.3 °F /  -14.8 °C 1000.9 in /  33890.5 hPa West 4.7 mph /  7.6 km/h 14.0 mph /  22.5 km/h 98 % 0.3 in /  7.62 mm
19:55 5.6 °F /  -14.7 °C 5.3 °F /  -14.8 °C 1000.9 in /  33890.5 hPa West 6.1 mph /  9.8 km/h 13.7 mph /  22 km/h 98 % 0.3 in /  7.62 mm
20:00 5.6 °F /  -14.7 °C 5.3 °F /  -14.8 °C 1000.9 in /  33890.5 hPa WSW 4.0 mph /  6.4 km/h 11.9 mph /  19.2 km/h 98 % 0.3 in /  7.62 mm
20:05 5.6 °F /  -14.7 °C 5.3 °F /  -14.8 °C 1000.9 in /  33890.5 hPa West 4.0 mph /  6.4 km/h 11.6 mph /  18.7 km/h 98 % 0.3 in /  7.62 mm
20:10 5.5 °F /  -14.7 °C 5.2 °F /  -14.9 °C 1000.9 in /  33890.5 hPa West 8.7 mph /  14 km/h 9.7 mph /  15.6 km/h 98 % 0.3 in /  7.62 mm
20:15 5.5 °F /  -14.7 °C 5.2 °F /  -14.9 °C 1000.9 in /  33890.5 hPa West 6.1 mph /  9.8 km/h 9.7 mph /  15.6 km/h 98 % 0.3 in /  7.62 mm
20:20 5.3 °F /  -14.8 °C 5.0 °F /  -15 °C 1000.9 in /  33890.5 hPa West 7.9 mph /  12.7 km/h 8.7 mph /  14 km/h 98 % 0.3 in /  7.62 mm
20:25 5.3 °F /  -14.8 °C 5.0 °F /  -15 °C 1000.9 in /  33890.5 hPa West 10.1 mph /  16.3 km/h 10.1 mph /  16.3 km/h 98 % 0.0 in /  0 mm
20:30 5.3 °F /  -14.8 °C 5.0 °F /  -15 °C 1000.9 in /  33890.5 hPa West 9.0 mph /  14.5 km/h 10.1 mph /  16.3 km/h 98 % 0.0 in /  0 mm
20:35 5.3 °F /  -14.8 °C 5.0 °F /  -15 °C 1000.9 in /  33890.5 hPa West 5.5 mph /  8.9 km/h 10.1 mph /  16.3 km/h 98 % 0.0 in /  0 mm
20:40 5.3 °F /  -14.8 °C 5.0 °F /  -15 °C 1000.9 in /  33890.5 hPa West 4.0 mph /  6.4 km/h 10.1 mph /  16.3 km/h 98 % 0.0 in /  0 mm
20:45 5.3 °F /  -14.8 °C 5.0 °F /  -15 °C 1000.9 in /  33890.5 hPa West 4.3 mph /  6.9 km/h 6.9 mph /  11.1 km/h 98 % 0.0 in /  0 mm
20:50 5.3 °F /  -14.8 °C 5.0 °F /  -15 °C 1000.9 in /  33890.5 hPa WSW 9.0 mph /  14.5 km/h 9.3 mph /  15 km/h 98 % 0.0 in /  0 mm
20:55 5.3 °F /  -14.8 °C 5.0 °F /  -15 °C 1000.9 in /  33890.5 hPa WSW 10.8 mph /  17.4 km/h 13.7 mph /  22 km/h 98 % 0.0 in /  0 mm
21:00 5.4 °F /  -14.8 °C 5.1 °F /  -14.9 °C 1000.9 in /  33890.5 hPa West 9.7 mph /  15.6 km/h 13.7 mph /  22 km/h 98 % 0.0 in /  0 mm
21:05 5.5 °F /  -14.7 °C 5.2 °F /  -14.9 °C 1000.9 in /  33890.5 hPa West 10.5 mph /  16.9 km/h 13.7 mph /  22 km/h 98 % 0.0 in /  0 mm
21:10 5.5 °F /  -14.7 °C 5.2 °F /  -14.9 °C 1000.9 in /  33890.5 hPa West 7.9 mph /  12.7 km/h 13.7 mph /  22 km/h 98 % 0.0 in /  0 mm
21:15 5.5 °F /  -14.7 °C 5.2 °F /  -14.9 °C 1000.9 in /  33890.5 hPa WSW 11.1 mph /  17.9 km/h 12.6 mph /  20.3 km/h 98 % 0.0 in /  0 mm
21:20 5.6 °F /  -14.7 °C 5.3 °F /  -14.8 °C 1000.9 in /  33890.5 hPa WSW 6.1 mph /  9.8 km/h 12.6 mph /  20.3 km/h 98 % 0.0 in /  0 mm
21:25 5.6 °F /  -14.7 °C 5.3 °F /  -14.8 °C 999.9 in /  33856.6 hPa Calm   11.1 mph /  17.9 km/h 98 % 0.0 in /  0 mm
21:30 5.5 °F /  -14.7 °C 5.2 °F /  -14.9 °C 999.9 in /  33856.6 hPa WSW 4.7 mph /  7.6 km/h 6.4 mph /  10.3 km/h 98 % 0.0 in /  0 mm
21:35 5.5 °F /  -14.7 °C 5.2 °F /  -14.9 °C 999.9 in /  33856.6 hPa Calm   5.8 mph /  9.3 km/h 98 % 0.0 in /  0 mm
21:40 5.4 °F /  -14.8 °C 5.1 °F /  -14.9 °C 1000.9 in /  33890.5 hPa Calm   5.8 mph /  9.3 km/h 98 % 0.0 in /  0 mm
21:45 5.2 °F /  -14.9 °C 4.9 °F /  -15.1 °C 1000.9 in /  33890.5 hPa WSW 6.1 mph /  9.8 km/h 6.1 mph /  9.8 km/h 98 % 0.0 in /  0 mm
21:50 5.1 °F /  -14.9 °C 4.8 °F /  -15.1 °C 1000.9 in /  33890.5 hPa Calm   6.1 mph /  9.8 km/h 98 % 0.0 in /  0 mm
21:55 5.1 °F /  -14.9 °C 4.8 °F /  -15.1 °C 1000.9 in /  33890.5 hPa Calm   6.4 mph /  10.3 km/h 98 % 0.0 in /  0 mm
21:56 5.1 °F /  -14.9 °C 4.8 °F /  -15.1 °C 1000.9 in /  33890.5 hPa Calm   6.4 mph /  10.3 km/h 98 % 0.0 in /  0 mm
22:01 5.1 °F /  -14.9 °C 4.8 °F /  -15.1 °C 1000.9 in /  33890.5 hPa Calm   6.4 mph /  10.3 km/h 98 % 0.0 in /  0 mm
22:06 5.0 °F /  -15 °C 4.7 °F /  -15.2 °C 1000.9 in /  33890.5 hPa Calm   4.3 mph /  6.9 km/h 98 % 0.0 in /  0 mm
22:11 4.9 °F /  -15.1 °C 4.6 °F /  -15.2 °C 1000.9 in /  33890.5 hPa Calm   4.3 mph /  6.9 km/h 98 % 0.0 in /  0 mm
22:16 4.9 °F /  -15.1 °C 4.6 °F /  -15.2 °C 1000.9 in /  33890.5 hPa Calm   3.5 mph /  5.6 km/h 98 % 0.0 in /  0 mm
22:21 4.8 °F /  -15.1 °C 4.5 °F /  -15.3 °C 1000.9 in /  33890.5 hPa SW 3.5 mph /  5.6 km/h 6.1 mph /  9.8 km/h 98 % 0.0 in /  0 mm
22:26 4.8 °F /  -15.1 °C 4.5 °F /  -15.3 °C 1000.9 in /  33890.5 hPa Calm   6.1 mph /  9.8 km/h 98 % 0.0 in /  0 mm
22:31 4.8 °F /  -15.1 °C 4.5 °F /  -15.3 °C 1000.9 in /  33890.5 hPa South 4.0 mph /  6.4 km/h 6.1 mph /  9.8 km/h 98 % 0.0 in /  0 mm
22:36 4.6 °F /  -15.2 °C 4.3 °F /  -15.4 °C 1000.9 in /  33890.5 hPa Calm   4.0 mph /  6.4 km/h 98 % 0.0 in /  0 mm
22:41 4.5 °F /  -15.3 °C 4.2 °F /  -15.4 °C 1000.9 in /  33890.5 hPa Calm   4.0 mph /  6.4 km/h 98 % 0.0 in /  0 mm
22:46 4.5 °F /  -15.3 °C 4.2 °F /  -15.4 °C 1000.9 in /  33890.5 hPa SW 4.0 mph /  6.4 km/h 7.9 mph /  12.7 km/h 98 % 0.0 in /  0 mm
22:51 4.4 °F /  -15.3 °C 4.1 °F /  -15.5 °C 1000.9 in /  33890.5 hPa SW 6.4 mph /  10.3 km/h 7.9 mph /  12.7 km/h 98 % 0.0 in /  0 mm
22:56 4.5 °F /  -15.3 °C 4.2 °F /  -15.4 °C 1000.9 in /  33890.5 hPa SSW 4.0 mph /  6.4 km/h 7.9 mph /  12.7 km/h 98 % 0.0 in /  0 mm
23:01 4.5 °F /  -15.3 °C 4.2 °F /  -15.4 °C 1000.9 in /  33890.5 hPa South 2.1 mph /  3.4 km/h 7.9 mph /  12.7 km/h 98 % 0.0 in /  0 mm
23:06 4.3 °F /  -15.4 °C 4.0 °F /  -15.6 °C 1000.9 in /  33890.5 hPa Calm   5.5 mph /  8.9 km/h 98 % 0.0 in /  0 mm
23:11 4.2 °F /  -15.4 °C 3.9 °F /  -15.6 °C 999.9 in /  33856.6 hPa Calm   1.4 mph /  2.3 km/h 98 % 0.0 in /  0 mm
23:16 4.1 °F /  -15.5 °C 3.8 °F /  -15.7 °C 999.9 in /  33856.6 hPa Calm   1.4 mph /  2.3 km/h 98 % 0.0 in /  0 mm
23:21 4.0 °F /  -15.6 °C 3.7 °F /  -15.7 °C 999.9 in /  33856.6 hPa Calm     98 % 0.0 in /  0 mm
23:26 3.9 °F /  -15.6 °C 3.6 °F /  -15.8 °C 1000.9 in /  33890.5 hPa Calm     98 % 0.0 in /  0 mm
23:31 3.7 °F /  -15.7 °C 3.4 °F /  -15.9 °C 1000.9 in /  33890.5 hPa Calm   1.4 mph /  2.3 km/h 98 % 0.0 in /  0 mm
23:36 3.7 °F /  -15.7 °C 3.4 °F /  -15.9 °C 1000.9 in /  33890.5 hPa Calm   1.8 mph /  2.9 km/h 98 % 0.0 in /  0 mm
23:41 3.6 °F /  -15.8 °C 3.3 °F /  -15.9 °C 1000.9 in /  33890.5 hPa Calm   1.8 mph /  2.9 km/h 98 % 0.0 in /  0 mm
23:46 3.7 °F /  -15.7 °C 3.4 °F /  -15.9 °C 1000.9 in /  33890.5 hPa Calm   3.2 mph /  5.1 km/h 98 % 0.0 in /  0 mm
23:51 3.7 °F /  -15.7 °C 3.4 °F /  -15.9 °C 1000.9 in /  33890.5 hPa Calm   3.2 mph /  5.1 km/h 98 % 0.0 in /  0 mm
23:56 3.7 °F /  -15.7 °C 3.4 °F /  -15.9 °C 1000.9 in /  33890.5 hPa Calm     98 % 0.0 in /  0 mm
Le Gheer Warneton
Courtoisie de Weather Underground - 2.25 mb

Mise a jour : 25/02/2018 14:53:11
Généré par Cumulus 1.9.4 (1099)